createdAt,value
2018-06-11T00:02:16.009Z,61.80
2018-06-11T00:05:49.252Z,61.70
2018-06-11T00:09:22.502Z,61.80
2018-06-11T00:12:55.724Z,61.90
2018-06-11T00:16:29.037Z,62.00
2018-06-11T00:20:02.285Z,62.20
2018-06-11T00:23:35.536Z,62.50
2018-06-11T00:27:08.778Z,62.70
2018-06-11T00:30:42.022Z,62.80
2018-06-11T00:34:15.265Z,63.00
2018-06-11T00:37:48.501Z,63.20
2018-06-11T00:41:21.744Z,63.60
2018-06-11T00:44:55.000Z,63.70
2018-06-11T00:48:28.236Z,63.80
2018-06-11T00:52:01.492Z,64.10
2018-06-11T00:55:46.269Z,64.40
2018-06-11T00:59:19.508Z,64.70
2018-06-11T01:02:53.188Z,64.70
2018-06-11T01:06:26.441Z,65.10
2018-06-11T01:09:59.692Z,65.50
2018-06-11T01:13:32.919Z,65.80
2018-06-11T01:17:06.177Z,66.00
2018-06-11T01:20:39.419Z,66.20
2018-06-11T01:24:12.665Z,66.50
2018-06-11T01:27:45.903Z,66.90
2018-06-11T01:31:19.132Z,67.50
2018-06-11T01:34:52.376Z,67.90
2018-06-11T01:38:25.596Z,68.10
2018-06-11T01:45:31.847Z,68.60
2018-06-11T01:49:05.101Z,69.10
2018-06-11T01:52:38.337Z,69.10
2018-06-11T01:56:11.575Z,69.20
2018-06-11T01:59:44.845Z,69.00
2018-06-11T02:03:18.087Z,69.00
2018-06-11T02:10:24.325Z,68.20
2018-06-11T02:13:57.544Z,67.90
2018-06-11T02:17:30.784Z,67.70
2018-06-11T02:21:04.026Z,67.60
2018-06-11T02:24:37.263Z,67.50
2018-06-11T02:28:10.690Z,67.90
2018-06-11T02:31:43.944Z,68.30
2018-06-11T02:35:17.184Z,68.60
2018-06-11T02:38:50.410Z,69.10
2018-06-11T02:42:23.663Z,69.00
2018-06-11T02:45:56.900Z,68.80
2018-06-11T02:49:30.129Z,68.90
2018-06-11T02:53:03.368Z,69.30
2018-06-11T02:56:36.604Z,69.50
2018-06-11T03:00:09.841Z,69.80
2018-06-11T03:03:43.163Z,70.40
2018-06-11T03:07:16.413Z,71.00
2018-06-11T03:10:49.652Z,72.20
2018-06-11T03:14:22.883Z,71.60
2018-06-11T03:17:56.116Z,72.20
2018-06-11T03:21:29.352Z,72.50
2018-06-11T03:25:02.610Z,72.70
2018-06-11T03:28:35.834Z,73.00
2018-06-11T03:32:09.073Z,72.70
2018-06-11T03:35:42.349Z,72.60
2018-06-11T03:39:15.590Z,72.60
2018-06-11T03:42:48.813Z,72.50
2018-06-11T03:46:22.060Z,72.30
2018-06-11T03:49:55.313Z,72.10
2018-06-11T03:53:28.536Z,71.90
2018-06-11T03:57:01.787Z,72.20
2018-06-11T04:00:35.047Z,72.60
2018-06-11T04:04:08.272Z,72.90
2018-06-11T04:07:41.530Z,73.00
2018-06-11T04:11:14.854Z,73.00
2018-06-11T04:14:48.098Z,72.70
2018-06-11T04:18:21.327Z,72.50
2018-06-11T04:21:54.568Z,72.30
2018-06-11T04:29:00.829Z,72.20
2018-06-11T04:32:34.068Z,71.70
2018-06-11T04:39:40.284Z,71.20
2018-06-11T04:43:13.535Z,70.90
2018-06-11T04:46:46.784Z,70.40
2018-06-11T04:50:20.020Z,70.00
2018-06-11T04:53:53.254Z,69.80
2018-06-11T05:00:59.492Z,69.70
2018-06-11T05:04:32.725Z,69.50
2018-06-11T05:08:05.963Z,69.20
2018-06-11T05:11:39.256Z,68.80
2018-06-11T05:15:12.497Z,68.50
2018-06-11T05:18:45.727Z,68.00
2018-06-11T05:22:18.980Z,67.70
2018-06-11T05:25:52.220Z,67.40
2018-06-11T05:29:25.456Z,66.90
2018-06-11T05:32:58.688Z,66.60
2018-06-11T05:36:31.973Z,66.50
2018-06-11T05:40:05.240Z,66.60
2018-06-11T05:43:38.510Z,66.60
2018-06-11T05:47:11.836Z,66.60
2018-06-11T05:50:45.090Z,66.60
2018-06-11T05:54:18.312Z,67.40
2018-06-11T05:57:51.564Z,66.00
2018-06-11T06:01:24.799Z,65.20
2018-06-11T06:04:58.025Z,64.50
2018-06-11T06:08:31.264Z,63.50
2018-06-11T06:12:04.512Z,62.50
2018-06-11T06:15:37.775Z,61.70
2018-06-11T06:19:11.325Z,60.70
2018-06-11T06:22:44.563Z,60.20
2018-06-11T06:26:17.834Z,60.20
2018-06-11T06:33:24.072Z,60.00
2018-06-11T06:36:57.329Z,59.70
2018-06-11T06:40:30.608Z,59.70
2018-06-11T06:44:03.868Z,59.10
2018-06-11T06:47:37.121Z,59.20
2018-06-11T06:51:10.392Z,59.30
2018-06-11T06:54:43.640Z,59.10
2018-06-11T06:58:16.929Z,58.70
2018-06-11T07:05:23.159Z,58.40
2018-06-11T07:08:56.414Z,58.20
2018-06-11T07:12:29.679Z,58.00
2018-06-11T07:16:02.947Z,57.80
2018-06-11T07:19:36.246Z,57.00
2018-06-11T07:23:09.497Z,56.30
2018-06-11T07:26:42.748Z,55.80
2018-06-11T07:30:16.009Z,55.80
2018-06-11T07:33:49.253Z,55.90
2018-06-11T07:37:22.511Z,55.70
2018-06-11T07:40:55.784Z,55.30
2018-06-11T07:44:29.031Z,55.20
2018-06-11T07:51:35.283Z,54.30
2018-06-11T07:55:08.531Z,54.00
2018-06-11T07:58:42.296Z,52.80
2018-06-11T08:02:15.536Z,52.00
2018-06-11T08:09:21.797Z,51.40
2018-06-11T08:12:55.068Z,50.50
2018-06-11T08:16:28.332Z,49.20
2018-06-11T08:20:01.585Z,47.70
2018-06-11T08:23:34.831Z,47.70
2018-06-11T08:30:41.092Z,47.60
2018-06-11T08:34:14.349Z,47.30
2018-06-11T08:37:47.601Z,46.90
2018-06-11T08:41:20.867Z,46.30
2018-06-11T08:44:54.129Z,46.20
2018-06-11T08:48:27.376Z,46.50
2018-06-11T08:52:00.639Z,46.40
2018-06-11T08:55:33.909Z,46.60
2018-06-11T08:59:07.149Z,46.90
2018-06-11T09:02:40.401Z,46.90
2018-06-11T09:06:13.680Z,46.50
2018-06-11T09:09:46.948Z,46.10
2018-06-11T09:13:20.209Z,46.30
2018-06-11T09:16:53.489Z,46.30
2018-06-11T09:20:26.744Z,46.30
2018-06-11T09:23:59.987Z,45.90
2018-06-11T09:27:33.241Z,45.50
2018-06-11T09:31:06.565Z,45.50
2018-06-11T09:34:39.797Z,45.40
2018-06-11T09:38:13.089Z,45.00
2018-06-11T09:41:46.379Z,44.80
2018-06-11T09:45:19.631Z,43.90
2018-06-11T09:48:52.916Z,43.90
2018-06-11T09:52:26.172Z,43.20
2018-06-11T09:55:59.412Z,43.20
2018-06-11T09:59:32.701Z,43.10
2018-06-11T10:03:05.952Z,42.70
2018-06-11T10:06:39.195Z,42.30
2018-06-11T10:10:12.493Z,41.80
2018-06-11T10:13:45.744Z,41.40
2018-06-11T10:17:19.012Z,41.50
2018-06-11T10:20:52.277Z,41.40
2018-06-11T10:24:25.522Z,41.40
2018-06-11T10:35:04.810Z,41.90
2018-06-11T10:42:11.100Z,41.40
2018-06-11T10:45:44.369Z,40.80
2018-06-11T10:49:17.628Z,41.20
2018-06-11T10:52:50.892Z,40.70
2018-06-11T10:56:24.152Z,40.40
2018-06-11T10:59:57.403Z,40.10
2018-06-11T11:03:30.633Z,40.10
2018-06-11T11:07:03.912Z,40.10
2018-06-11T11:10:37.175Z,40.70
2018-06-11T11:14:10.419Z,41.70
2018-06-11T11:17:43.665Z,42.90
2018-06-11T11:21:16.928Z,43.80
2018-06-11T11:24:50.179Z,44.60
2018-06-11T11:28:23.427Z,45.30
2018-06-11T11:31:56.692Z,46.00
2018-06-11T11:35:29.941Z,46.70
2018-06-11T11:39:03.229Z,46.80
2018-06-11T11:42:36.752Z,47.20
2018-06-11T11:46:10.004Z,47.20
2018-06-11T11:49:43.243Z,47.20
2018-06-11T11:53:16.499Z,47.10
2018-06-11T11:56:49.756Z,46.60
2018-06-11T12:00:22.996Z,46.20
2018-06-11T12:03:56.258Z,45.70
2018-06-11T12:07:29.533Z,45.70
2018-06-11T12:18:08.798Z,44.90
2018-06-11T12:25:15.042Z,44.40
2018-06-11T12:28:48.300Z,44.20
2018-06-11T12:32:21.576Z,44.00
2018-06-11T12:35:54.868Z,43.70
2018-06-11T12:39:28.138Z,43.20
2018-06-11T12:43:01.389Z,42.80
2018-06-11T12:57:13.626Z,43.40
2018-06-11T13:00:46.881Z,44.60
2018-06-11T13:11:26.955Z,45.30
2018-06-11T13:15:00.215Z,45.60
2018-06-11T13:18:33.452Z,45.90
2018-06-11T13:22:06.738Z,46.60
2018-06-11T13:25:39.969Z,47.60
2018-06-11T13:29:13.220Z,48.20
2018-06-11T13:32:46.522Z,48.70
2018-06-11T13:36:19.737Z,48.30
2018-06-11T13:39:53.006Z,48.20
2018-06-11T13:43:26.284Z,48.30
2018-06-11T13:50:32.528Z,49.40
2018-06-11T13:54:05.820Z,49.80
2018-06-11T13:57:39.102Z,50.90
2018-06-11T14:01:12.357Z,51.20
2018-06-11T14:04:45.616Z,51.10
2018-06-11T14:08:18.853Z,51.30
2018-06-11T14:11:52.121Z,51.70
2018-06-11T14:15:25.365Z,55.10
2018-06-11T14:18:58.622Z,57.00
2018-06-11T14:22:31.865Z,57.50
2018-06-11T14:26:05.113Z,57.50
2018-06-11T14:29:38.348Z,57.00
2018-06-11T14:33:11.615Z,56.40
2018-06-11T14:36:44.896Z,57.40
2018-06-11T14:40:18.141Z,56.60
2018-06-11T14:43:51.398Z,56.20
2018-06-11T14:47:24.636Z,57.50
2018-06-11T14:50:57.893Z,58.20
2018-06-11T14:54:31.143Z,59.30
2018-06-11T14:58:04.454Z,59.70
2018-06-11T15:01:37.744Z,60.40
2018-06-11T15:05:10.981Z,60.90
2018-06-11T15:12:17.230Z,62.00
2018-06-11T15:15:50.528Z,63.20
2018-06-11T15:19:23.754Z,64.00
2018-06-11T15:22:56.996Z,64.80
2018-06-11T15:26:30.217Z,65.40
2018-06-11T15:30:03.485Z,65.70
2018-06-11T15:33:36.726Z,66.80
2018-06-11T15:37:10.007Z,68.10
2018-06-11T15:40:43.269Z,68.70
2018-06-11T15:47:49.477Z,69.70
2018-06-11T15:51:22.785Z,68.70
2018-06-11T15:54:56.024Z,68.50
2018-06-11T15:58:29.295Z,67.90
2018-06-11T16:02:02.548Z,67.80
2018-06-11T16:05:35.789Z,67.60
2018-06-11T16:09:09.377Z,67.40
2018-06-11T16:12:42.635Z,67.40
2018-06-11T16:16:15.887Z,68.00
2018-06-11T16:19:49.112Z,68.30
2018-06-11T16:23:22.372Z,68.80
2018-06-11T16:26:55.612Z,69.00
2018-06-11T16:30:28.895Z,69.60
2018-06-11T16:34:02.157Z,69.90
2018-06-11T16:37:35.483Z,70.00
2018-06-11T16:41:08.730Z,69.20
2018-06-11T16:44:41.979Z,69.70
2018-06-11T16:48:15.208Z,70.50
2018-06-11T16:51:48.458Z,70.50
2018-06-11T16:55:21.720Z,70.60
2018-06-11T16:58:54.972Z,70.70
2018-06-11T17:02:28.238Z,70.50
2018-06-11T17:06:01.486Z,70.70
2018-06-11T17:09:34.731Z,71.50
2018-06-11T17:13:08.009Z,71.60
2018-06-11T17:16:41.248Z,70.90
2018-06-11T17:20:14.514Z,71.00
2018-06-11T17:23:48.564Z,70.80
2018-06-11T17:27:21.864Z,72.00
2018-06-11T17:30:55.112Z,72.10
2018-06-11T17:34:28.350Z,72.30
2018-06-11T17:38:01.780Z,72.50
2018-06-11T17:52:14.423Z,73.20
2018-06-11T17:55:48.103Z,74.20
2018-06-11T17:59:21.436Z,76.60
2018-06-11T18:02:54.772Z,79.60
2018-06-11T18:06:28.016Z,80.00
2018-06-11T18:10:01.312Z,81.70
2018-06-11T18:13:34.580Z,82.70
2018-06-11T18:17:07.833Z,83.30
2018-06-11T18:20:41.149Z,83.30
2018-06-11T18:24:14.325Z,83.60
2018-06-11T18:27:47.577Z,85.00
2018-06-11T18:31:20.813Z,86.70
2018-06-11T18:34:54.056Z,89.10
2018-06-11T18:38:27.317Z,89.60
2018-06-11T18:42:00.602Z,89.60
2018-06-11T18:45:33.821Z,89.10
2018-06-11T18:49:07.053Z,88.30
2018-06-11T18:52:40.292Z,88.50
2018-06-11T18:56:13.771Z,88.10
2018-06-11T18:59:47.069Z,88.10
2018-06-11T19:03:21.311Z,88.20
2018-06-11T19:06:54.615Z,88.00
2018-06-11T19:10:27.913Z,87.20
2018-06-11T19:14:11.460Z,86.70
2018-06-11T19:17:44.985Z,86.30
2018-06-11T19:21:18.450Z,85.30
2018-06-11T19:24:51.818Z,84.60
2018-06-11T19:28:26.418Z,84.60
2018-06-11T19:31:59.848Z,84.70
2018-06-11T19:35:33.188Z,84.70
2018-06-11T19:39:07.419Z,84.70
2018-06-11T19:42:40.773Z,84.60
2018-06-11T19:46:14.049Z,84.60
2018-06-11T19:49:47.341Z,85.50
2018-06-11T19:53:21.673Z,86.70
2018-06-11T19:56:55.033Z,87.70
2018-06-11T20:00:28.333Z,88.10
2018-06-11T20:04:01.583Z,88.20
2018-06-11T20:07:34.840Z,88.70
2018-06-11T20:11:08.167Z,88.50
2018-06-11T20:14:41.576Z,88.70
2018-06-11T20:18:14.884Z,88.60
2018-06-11T20:21:48.164Z,88.10
2018-06-11T20:25:21.442Z,87.30
2018-06-11T20:28:54.760Z,87.00
2018-06-11T20:32:28.090Z,86.60
2018-06-11T20:36:01.323Z,86.10
2018-06-11T20:39:34.656Z,85.40
2018-06-11T20:43:07.944Z,85.60
2018-06-11T20:46:41.222Z,85.20
2018-06-11T20:50:14.465Z,85.30
2018-06-11T20:53:47.705Z,85.50
2018-06-11T20:57:20.965Z,85.50
2018-06-11T21:00:54.243Z,85.20
2018-06-11T21:04:28.355Z,85.00
2018-06-11T21:08:01.656Z,84.30
2018-06-11T21:11:34.954Z,85.00
2018-06-11T21:15:08.221Z,84.10
2018-06-11T21:18:41.473Z,84.20
2018-06-11T21:22:14.761Z,83.70
2018-06-11T21:25:48.042Z,83.80
2018-06-11T21:29:21.299Z,84.10
2018-06-11T21:36:27.638Z,84.40
2018-06-11T21:40:00.930Z,84.70
2018-06-11T21:43:34.199Z,84.90
2018-06-11T21:50:40.446Z,85.20
2018-06-11T21:54:13.692Z,86.00
2018-06-11T22:04:52.936Z,84.90
2018-06-11T22:08:26.201Z,85.70
2018-06-11T22:11:59.505Z,85.10
2018-06-11T22:15:32.780Z,85.40
2018-06-11T22:22:39.022Z,85.20
2018-06-11T22:26:12.283Z,85.10
2018-06-11T22:33:18.551Z,85.50
2018-06-11T22:36:51.912Z,85.90
2018-06-11T22:40:25.179Z,85.70
2018-06-11T22:47:31.548Z,85.00
2018-06-11T22:51:04.808Z,84.60
2018-06-11T22:54:38.079Z,84.40
2018-06-11T23:01:44.325Z,83.80
2018-06-11T23:05:17.609Z,83.40
2018-06-11T23:08:50.850Z,83.40
2018-06-11T23:12:24.126Z,83.70
2018-06-11T23:15:57.405Z,84.00
2018-06-11T23:19:30.671Z,83.40
2018-06-11T23:26:36.932Z,83.40
2018-06-11T23:30:10.193Z,83.20
2018-06-11T23:33:43.440Z,83.20
2018-06-11T23:37:16.701Z,83.20
2018-06-11T23:40:49.961Z,83.40
2018-06-11T23:44:23.207Z,83.50
2018-06-11T23:47:56.458Z,83.80
2018-06-11T23:55:02.724Z,84.30
2018-06-11T23:58:35.972Z,84.20
